Time;durP1;ratioP1;P1;durP2;ratioP2;P2;SDS_P1;SDS_P2;PMS_P1;PMS_P2;Temp;Humidity;BMP_temperature;BMP_pressure;BME280_temperature;BME280_humidity;BME280_pressure;Samples;Min_cycle;Max_cycle;Signal;HPM_P1;HPM_P2
2021/05/26 00:02:03;;;;;;;15.63;14.13;;;10.30;99.90;;;;;;4935953;29;20488;-72
2021/05/26 00:04:30;;;;;;;16.33;14.93;;;10.30;99.90;;;;;;4937012;29;20565;-72
2021/05/26 00:06:59;;;;;;;16.53;15.13;;;10.30;99.90;;;;;;4935437;29;20460;-72
2021/05/26 00:09:27;;;;;;;16.50;15.00;;;10.30;99.90;;;;;;4936779;29;20531;-72
2021/05/26 00:11:54;;;;;;;15.67;14.27;;;10.30;99.90;;;;;;4936149;29;20507;-72
2021/05/26 00:14:22;;;;;;;16.27;14.77;;;10.30;99.90;;;;;;4936780;29;20984;-72
2021/05/26 00:16:50;;;;;;;17.17;15.50;;;10.30;99.90;;;;;;4935306;29;20590;-72
2021/05/26 00:19:18;;;;;;;18.10;15.73;;;10.30;99.90;;;;;;4936456;29;20460;-72
2021/05/26 00:21:46;;;;;;;17.40;15.80;;;10.30;99.90;;;;;;4935216;29;20498;-72
2021/05/26 00:24:14;;;;;;;17.50;15.90;;;10.30;99.90;;;;;;4936814;29;20514;-72
2021/05/26 00:26:41;;;;;;;17.03;15.43;;;10.30;99.90;;;;;;4936466;29;20440;-72
2021/05/26 00:29:09;;;;;;;16.63;15.20;;;10.30;99.90;;;;;;4936268;29;20475;-72
2021/05/26 00:31:37;;;;;;;17.00;15.60;;;10.30;99.90;;;;;;4936266;29;20873;-72
2021/05/26 00:34:04;;;;;;;16.70;15.30;;;10.30;99.90;;;;;;4935517;29;20545;-72
2021/05/26 00:36:33;;;;;;;16.40;14.90;;;10.30;99.90;;;;;;4935023;29;20447;-72
2021/05/26 00:39:01;;;;;;;15.67;14.27;;;10.30;99.90;;;;;;4934888;29;20547;-72
2021/05/26 00:41:29;;;;;;;16.47;14.90;;;10.30;99.90;;;;;;4936205;29;20440;-72
2021/05/26 00:43:59;;;;;;;17.90;16.25;;;10.30;99.90;;;;;;4933494;29;20958;-72
2021/05/26 00:46:29;;;;;;;15.90;14.50;;;10.30;99.90;;;;;;4936407;29;20184;-72
2021/05/26 00:48:57;;;;;;;15.37;13.90;;;10.30;99.90;;;;;;4936091;29;20444;-72
2021/05/26 00:51:24;;;;;;;14.90;13.50;;;10.30;99.90;;;;;;4934845;29;20448;-72
2021/05/26 00:53:53;;;;;;;18.25;16.45;;;10.30;99.90;;;;;;4934864;29;20883;-72
2021/05/26 00:56:21;;;;;;;16.33;14.83;;;10.40;99.90;;;;;;4936073;29;20259;-72
2021/05/26 00:58:48;;;;;;;16.13;14.43;;;10.30;99.90;;;;;;4936286;29;20515;-72
2021/05/26 01:01:18;;;;;;;17.13;15.17;;;10.30;99.90;;;;;;4935004;29;20463;-72
2021/05/26 01:03:47;;;;;;;17.70;15.60;;;10.30;99.90;;;;;;4936021;29;20440;-72
2021/05/26 01:06:15;;;;;;;16.30;14.80;;;10.30;99.90;;;;;;4936226;29;20563;-72
2021/05/26 01:08:43;;;;;;;17.23;15.60;;;10.20;99.90;;;;;;4935904;29;20455;-72
2021/05/26 01:11:11;;;;;;;16.90;15.17;;;10.20;99.90;;;;;;4935836;29;20463;-72
2021/05/26 01:13:40;;;;;;;16.07;13.80;;;10.20;99.90;;;;;;4937905;29;20479;-72
2021/05/26 01:16:08;;;;;;;17.80;16.13;;;10.20;99.90;;;;;;4939777;29;20464;-72
2021/05/26 01:18:37;;;;;;;17.77;16.03;;;10.20;99.90;;;;;;4938798;29;20473;-72
2021/05/26 01:21:16;;;;;;;18.30;16.60;;;10.20;99.90;;;;;;4939125;29;20507;-72
2021/05/26 01:23:48;;;;;;;19.30;17.33;;;10.20;99.90;;;;;;4938417;29;20955;-72
2021/05/26 01:26:20;;;;;;;18.87;17.17;;;10.10;99.90;;;;;;4938932;29;20431;-71
2021/05/26 01:28:48;;;;;;;18.07;16.47;;;10.10;99.90;;;;;;4939474;29;20448;-71
2021/05/26 01:31:19;;;;;;;19.67;17.83;;;10.10;99.90;;;;;;4938349;29;20440;-72
2021/05/26 01:33:56;;;;;;;18.00;16.30;;;10.10;99.90;;;;;;4939052;29;20837;-72
2021/05/26 01:36:29;;;;;;;18.80;17.10;;;10.00;99.90;;;;;;4938400;29;20467;-72
2021/05/26 01:38:57;;;;;;;18.53;16.63;;;10.00;99.90;;;;;;4938110;29;20547;-71
2021/05/26 01:41:26;;;;;;;18.87;17.17;;;10.00;99.90;;;;;;4939288;29;20443;-72
2021/05/26 01:43:55;;;;;;;19.17;17.37;;;10.00;99.90;;;;;;4939293;29;20504;-72
2021/05/26 01:46:25;;;;;;;19.17;17.47;;;9.90;99.90;;;;;;4937998;29;20456;-72
2021/05/26 01:48:53;;;;;;;17.93;16.27;;;9.90;99.90;;;;;;4939124;29;20491;-72
2021/05/26 01:51:21;;;;;;;18.17;16.47;;;9.90;99.90;;;;;;4938758;29;20498;-71
2021/05/26 01:53:51;;;;;;;18.67;16.90;;;9.90;99.90;;;;;;4937658;29;20479;-72
2021/05/26 01:56:22;;;;;;;20.37;18.30;;;9.90;99.90;;;;;;4939052;29;20439;-72
2021/05/26 01:59:10;;;;;;;18.70;17.10;;;9.80;99.90;;;;;;4928491;29;20476;-72
2021/05/26 02:01:42;;;;;;;20.20;18.20;;;9.80;99.90;;;;;;4938069;29;20969;-71
2021/05/26 02:04:09;;;;;;;20.40;18.50;;;9.80;99.90;;;;;;4937707;29;20451;-72
2021/05/26 02:06:46;;;;;;;17.83;16.23;;;9.80;99.90;;;;;;4937585;29;20459;-72
2021/05/26 02:09:17;;;;;;;19.60;17.70;;;9.80;99.90;;;;;;4938516;29;20449;-72
2021/05/26 02:14:33;;;;;;;18.47;16.57;;;9.70;99.90;;;;;;4939029;29;20969;-72
2021/05/26 02:17:02;;;;;;;20.03;18.03;;;9.70;99.90;;;;;;4937207;29;20503;-72
2021/05/26 02:19:32;;;;;;;19.80;17.70;;;9.70;99.90;;;;;;4936395;29;20465;-72
2021/05/26 02:21:59;;;;;;;18.50;16.73;;;9.80;99.90;;;;;;4937345;29;20241;-72
2021/05/26 02:24:34;;;;;;;18.10;16.37;;;9.70;99.90;;;;;;4936958;29;20850;-72
2021/05/26 02:27:04;;;;;;;19.70;17.87;;;9.70;99.90;;;;;;4938114;29;20491;-72
2021/05/26 02:29:31;;;;;;;20.43;18.33;;;9.70;99.90;;;;;;4937178;29;20483;-72
2021/05/26 02:32:00;;;;;;;21.13;19.07;;;9.70;99.90;;;;;;4937166;29;20456;-72
2021/05/26 02:34:37;;;;;;;19.17;17.17;;;9.70;99.90;;;;;;4937296;29;20472;-72
2021/05/26 02:37:05;;;;;;;20.17;18.30;;;9.70;99.90;;;;;;4938620;29;20448;-71
2021/05/26 02:39:33;;;;;;;20.90;18.70;;;9.70;99.90;;;;;;4936623;29;20853;-72
2021/05/26 02:42:05;;;;;;;21.17;18.87;;;9.60;99.90;;;;;;4938447;29;20444;-72
2021/05/26 02:44:34;;;;;;;20.93;18.93;;;9.70;99.90;;;;;;4937042;29;20448;-72
2021/05/26 02:47:01;;;;;;;19.90;17.90;;;9.70;99.90;;;;;;4936922;29;20502;-72
2021/05/26 02:49:29;;;;;;;21.30;18.27;;;9.70;99.90;;;;;;4936801;29;20511;-72
2021/05/26 02:51:57;;;;;;;20.50;18.37;;;9.70;99.90;;;;;;4936959;29;20439;-72
2021/05/26 02:54:25;;;;;;;21.40;19.30;;;9.70;99.90;;;;;;4937970;29;21000;-72
2021/05/26 02:56:52;;;;;;;20.80;18.90;;;9.70;99.90;;;;;;4936744;29;20474;-72
2021/05/26 02:59:44;;;;;;;20.93;18.93;;;9.70;99.90;;;;;;4939917;29;20546;-72
2021/05/26 03:02:18;;;;;;;22.20;20.00;;;9.70;99.90;;;;;;4919247;29;20451;-72
2021/05/26 03:04:52;;;;;;;22.10;19.87;;;9.70;99.90;;;;;;4917694;29;20500;-71
2021/05/26 03:07:20;;;;;;;23.20;20.90;;;9.70;99.90;;;;;;4927566;29;20464;-71
2021/05/26 03:09:49;;;;;;;20.70;18.70;;;9.70;99.90;;;;;;4925631;29;20542;-72
2021/05/26 03:12:19;;;;;;;22.23;19.87;;;9.70;99.90;;;;;;4936703;29;20483;-72
2021/05/26 03:14:52;;;;;;;22.93;20.83;;;9.70;99.90;;;;;;4937846;29;20848;-72
2021/05/26 03:17:23;;;;;;;22.80;20.50;;;9.70;99.90;;;;;;4937903;29;20853;-71
2021/05/26 03:19:51;;;;;;;21.97;19.87;;;9.70;99.90;;;;;;4937725;29;20463;-71
2021/05/26 03:22:31;;;;;;;21.70;19.63;;;9.70;99.90;;;;;;4937960;29;20456;-71
2021/05/26 03:24:59;;;;;;;22.00;19.87;;;9.80;99.90;;;;;;4938097;29;20446;-72
2021/05/26 03:27:34;;;;;;;23.20;20.90;;;9.80;99.90;;;;;;4939192;29;20893;-72
2021/05/26 03:30:05;;;;;;;21.67;19.67;;;9.80;99.90;;;;;;4937794;29;20506;-71
2021/05/26 03:32:33;;;;;;;22.73;20.73;;;9.80;99.90;;;;;;4918761;29;20837;-71
2021/05/26 03:35:02;;;;;;;22.90;20.50;;;9.80;99.90;;;;;;4916861;29;20484;-71
2021/05/26 03:37:30;;;;;;;22.60;20.43;;;9.80;99.90;;;;;;4917690;29;20500;-71
2021/05/26 03:39:59;;;;;;;23.83;21.23;;;9.80;99.90;;;;;;4917153;29;20955;-72
2021/05/26 03:42:27;;;;;;;21.87;19.67;;;9.90;99.90;;;;;;4930333;29;20498;-72
2021/05/26 03:44:55;;;;;;;22.57;20.17;;;9.90;99.90;;;;;;4935810;29;20450;-72
2021/05/26 03:47:24;;;;;;;21.80;19.50;;;9.90;99.90;;;;;;4937311;29;20483;-72
2021/05/26 03:49:56;;;;;;;24.30;21.73;;;9.90;99.90;;;;;;4935897;29;20538;-72
2021/05/26 03:52:24;;;;;;;23.20;20.87;;;9.90;99.90;;;;;;4935485;29;20969;-72
2021/05/26 03:54:52;;;;;;;24.33;21.87;;;9.90;99.90;;;;;;4935416;29;20479;-71
2021/05/26 03:57:21;;;;;;;25.43;22.70;;;9.90;99.90;;;;;;4935619;29;20515;-72
2021/05/26 03:59:48;;;;;;;27.63;24.57;;;9.90;99.90;;;;;;4936758;29;20460;-72
2021/05/26 04:02:17;;;;;;;24.20;21.70;;;9.90;99.90;;;;;;4936134;29;20460;-72
2021/05/26 04:04:46;;;;;;;23.90;21.63;;;9.90;99.90;;;;;;4935513;29;20452;-72
2021/05/26 04:07:14;;;;;;;24.73;22.10;;;9.90;99.90;;;;;;4935496;29;20498;-72
2021/05/26 04:09:42;;;;;;;24.17;21.77;;;9.90;99.90;;;;;;4935375;29;20570;-72
2021/05/26 04:12:10;;;;;;;23.63;21.40;;;9.90;99.90;;;;;;4935386;29;20456;-72
2021/05/26 04:14:50;;;;;;;23.07;20.67;;;10.00;99.90;;;;;;4935256;29;20530;-72
2021/05/26 04:17:36;;;;;;;22.70;20.50;;;10.00;99.90;;;;;;4937041;29;20431;-72
2021/05/26 04:20:28;;;;;;;22.23;20.03;;;10.00;99.90;;;;;;4935217;29;20527;-72
2021/05/26 04:22:57;;;;;;;23.50;21.20;;;10.00;99.90;;;;;;4936418;29;20454;-72
2021/05/26 04:25:28;;;;;;;23.00;20.80;;;10.00;99.90;;;;;;4935220;29;21032;-72
2021/05/26 04:27:56;;;;;;;23.47;21.10;;;10.00;99.90;;;;;;4935671;29;20463;-70
2021/05/26 04:30:25;;;;;;;23.00;20.80;;;10.00;99.90;;;;;;4935014;29;20973;-69
2021/05/26 04:32:54;;;;;;;23.10;20.80;;;10.00;99.90;;;;;;4935305;29;20498;-69
2021/05/26 04:35:22;;;;;;;23.80;21.47;;;10.00;99.90;;;;;;4935010;29;20897;-70
2021/05/26 04:37:51;;;;;;;24.40;22.00;;;10.00;99.90;;;;;;4937635;29;20447;-70
2021/05/26 04:40:19;;;;;;;26.43;23.80;;;10.00;99.90;;;;;;4936412;29;20861;-71
2021/05/26 04:42:46;;;;;;;24.57;22.10;;;10.10;99.90;;;;;;4936167;29;20540;-72
2021/05/26 04:45:15;;;;;;;24.67;21.33;;;10.10;99.90;;;;;;4936221;29;20447;-72
2021/05/26 04:47:43;;;;;;;23.80;21.40;;;10.10;99.90;;;;;;4936177;29;20436;-72
2021/05/26 04:50:11;;;;;;;26.07;23.30;;;10.10;99.90;;;;;;4934830;29;21009;-72
2021/05/26 04:52:39;;;;;;;26.83;22.97;;;10.10;99.90;;;;;;4934709;29;20459;-72
2021/05/26 04:55:09;;;;;;;25.60;23.00;;;10.10;99.90;;;;;;4934701;29;20471;-72
2021/05/26 04:57:37;;;;;;;24.00;21.53;;;10.20;99.90;;;;;;4936063;29;20846;-72
2021/05/26 05:00:07;;;;;;;26.10;23.00;;;10.20;99.90;;;;;;4937391;29;20512;-72
2021/05/26 05:02:35;;;;;;;24.90;22.60;;;10.20;99.90;;;;;;4936316;29;20432;-72
2021/05/26 05:05:04;;;;;;;24.97;22.47;;;10.20;99.90;;;;;;4936086;29;20440;-72
2021/05/26 05:07:34;;;;;;;25.87;23.10;;;10.20;99.90;;;;;;4936249;29;20588;-72
2021/05/26 05:10:02;;;;;;;26.90;24.30;;;10.20;99.90;;;;;;4934643;29;20540;-72
2021/05/26 05:12:31;;;;;;;24.63;22.20;;;10.30;99.90;;;;;;4933837;29;20480;-72
2021/05/26 05:14:59;;;;;;;26.83;23.93;;;10.30;99.90;;;;;;4930957;29;20474;-72
2021/05/26 05:17:27;;;;;;;25.47;21.80;;;10.40;99.90;;;;;;4934651;29;20446;-72
2021/05/26 05:19:54;;;;;;;28.35;25.35;;;10.40;99.90;;;;;;4934063;29;20449;-72
2021/05/26 05:22:22;;;;;;;25.70;22.93;;;10.50;99.90;;;;;;4935387;29;20247;-72
2021/05/26 05:24:50;;;;;;;25.97;23.33;;;10.50;99.90;;;;;;4935282;29;20478;-72
2021/05/26 05:27:17;;;;;;;25.60;22.93;;;10.50;99.90;;;;;;4935397;29;20523;-72
2021/05/26 05:29:46;;;;;;;25.80;23.20;;;10.50;99.90;;;;;;4934821;29;20490;-72
2021/05/26 05:32:14;;;;;;;25.87;23.10;;;10.50;99.90;;;;;;4934533;29;20494;-72
2021/05/26 05:34:43;;;;;;;26.90;22.63;;;10.50;99.90;;;;;;4935941;29;20503;-72
2021/05/26 05:37:10;;;;;;;27.90;25.10;;;10.60;99.90;;;;;;4934452;29;20452;-72
2021/05/26 05:39:38;;;;;;;26.00;23.27;;;10.60;99.90;;;;;;4935874;29;20472;-72
2021/05/26 05:42:06;;;;;;;27.27;24.37;;;10.60;99.90;;;;;;4935909;29;20891;-72
2021/05/26 05:44:33;;;;;;;28.03;25.03;;;10.70;99.90;;;;;;4936150;29;20436;-72
2021/05/26 05:47:02;;;;;;;26.83;24.13;;;10.70;99.90;;;;;;4935897;29;20447;-72
2021/05/26 05:49:30;;;;;;;26.10;23.30;;;10.70;99.90;;;;;;4935550;29;21056;-72
2021/05/26 05:51:59;;;;;;;26.30;22.80;;;10.70;99.90;;;;;;4935826;29;20440;-72
2021/05/26 05:54:29;;;;;;;27.93;25.00;;;10.80;99.90;;;;;;4935486;29;20475;-72
2021/05/26 05:56:58;;;;;;;31.40;25.07;;;10.80;99.90;;;;;;4934305;29;20535;-73
2021/05/26 05:59:25;;;;;;;26.40;23.87;;;10.80;99.90;;;;;;4935501;29;20815;-72
2021/05/26 06:01:53;;;;;;;27.57;24.77;;;10.80;99.90;;;;;;4939856;29;20838;-73
2021/05/26 06:04:21;;;;;;;25.60;23.00;;;10.90;99.90;;;;;;4939413;29;20535;-73
2021/05/26 06:06:49;;;;;;;26.33;23.40;;;10.90;99.90;;;;;;4937563;29;20448;-72
2021/05/26 06:09:17;;;;;;;26.07;22.77;;;10.90;99.90;;;;;;4938837;29;20491;-72
2021/05/26 06:11:44;;;;;;;24.43;21.67;;;10.90;99.90;;;;;;4938846;29;20440;-72
2021/05/26 06:14:17;;;;;;;24.50;22.10;;;10.90;99.90;;;;;;4938952;29;20454;-72
2021/05/26 06:16:44;;;;;;;25.63;22.97;;;10.90;99.90;;;;;;4937882;29;20842;-72
2021/05/26 06:19:14;;;;;;;25.60;23.00;;;10.90;99.90;;;;;;4939054;29;20472;-73
2021/05/26 06:21:43;;;;;;;24.40;21.63;;;10.90;99.90;;;;;;4937377;29;20444;-73
2021/05/26 06:24:11;;;;;;;23.50;20.80;;;10.90;99.90;;;;;;4937594;29;20456;-73
2021/05/26 06:26:39;;;;;;;23.67;21.10;;;10.90;99.90;;;;;;4937298;29;20546;-73
2021/05/26 06:29:07;;;;;;;25.00;22.60;;;10.90;99.90;;;;;;4938471;29;20878;-72
2021/05/26 06:31:34;;;;;;;24.43;22.03;;;11.00;99.90;;;;;;4938444;29;20531;-72
2021/05/26 06:34:02;;;;;;;23.70;19.83;;;11.00;99.90;;;;;;4938728;29;20463;-73
2021/05/26 06:36:33;;;;;;;23.67;21.23;;;11.00;99.90;;;;;;4937091;29;20515;-73
2021/05/26 06:39:04;;;;;;;23.13;20.83;;;11.00;99.90;;;;;;4936944;29;20808;-73
2021/05/26 06:41:32;;;;;;;20.97;18.00;;;11.00;99.90;;;;;;4938259;29;20448;-72
2021/05/26 06:43:59;;;;;;;21.63;18.57;;;11.00;99.90;;;;;;4936935;29;20503;-73
2021/05/26 06:46:27;;;;;;;19.33;17.33;;;11.00;99.90;;;;;;4936825;29;20451;-73
2021/05/26 06:48:55;;;;;;;20.63;18.38;;;11.00;99.90;;;;;;4937850;29;20970;-72
2021/05/26 06:51:22;;;;;;;19.27;17.37;;;11.10;99.90;;;;;;4938634;29;20198;-72
2021/05/26 06:53:50;;;;;;;21.03;16.93;;;11.10;99.90;;;;;;4936763;29;20452;-72
2021/05/26 06:56:19;;;;;;;17.67;15.77;;;11.00;99.90;;;;;;4936712;29;20472;-72
2021/05/26 06:58:46;;;;;;;17.67;15.93;;;11.00;99.90;;;;;;4936674;29;20447;-72
2021/05/26 07:01:17;;;;;;;16.87;14.80;;;11.00;99.90;;;;;;4938194;29;20539;-73
2021/05/26 07:03:45;;;;;;;21.33;15.40;;;11.10;99.90;;;;;;4936649;29;20463;-73
2021/05/26 07:06:12;;;;;;;17.07;15.30;;;11.10;99.90;;;;;;4936527;29;20963;-72
2021/05/26 07:08:40;;;;;;;15.80;14.20;;;11.10;99.90;;;;;;4937722;29;20518;-72
2021/05/26 07:11:09;;;;;;;17.03;15.30;;;11.20;99.90;;;;;;4936235;29;20471;-73
2021/05/26 07:13:39;;;;;;;16.07;14.37;;;11.30;99.90;;;;;;4936466;29;20527;-72
2021/05/26 07:16:06;;;;;;;15.73;14.13;;;11.30;99.90;;;;;;4937897;29;20896;-72
2021/05/26 07:18:35;;;;;;;13.80;12.60;;;11.40;99.90;;;;;;4937639;29;20439;-72
2021/05/26 07:21:03;;;;;;;29.77;16.23;;;11.50;99.90;;;;;;4936284;29;20467;-73
2021/05/26 07:23:32;;;;;;;23.17;15.67;;;11.60;99.90;;;;;;4937525;29;20440;-73
2021/05/26 07:25:59;;;;;;;20.40;15.70;;;11.60;99.90;;;;;;4937672;29;20444;-72
2021/05/26 07:28:27;;;;;;;22.67;15.07;;;11.70;99.90;;;;;;4937399;29;20443;-72
2021/05/26 07:30:56;;;;;;;13.97;11.67;;;11.80;99.90;;;;;;4937278;29;20472;-72
2021/05/26 07:33:24;;;;;;;13.83;12.43;;;12.00;99.90;;;;;;4936095;29;20977;-72
2021/05/26 07:39:34;;;;;;;12.73;10.80;;;12.20;99.90;;;;;;4936978;29;20519;-73
2021/05/26 07:42:16;;;;;;;15.60;10.67;;;12.20;99.90;;;;;;4936002;29;20444;-73
2021/05/26 07:44:59;;;;;;;17.07;12.87;;;12.20;99.90;;;;;;4937083;29;20448;-73
2021/05/26 07:48:01;;;;;;;14.03;10.87;;;12.10;99.90;;;;;;4935643;29;20595;-73
2021/05/26 07:51:02;;;;;;;9.67;8.87;;;12.10;99.90;;;;;;4936945;29;20471;-73
2021/05/26 07:53:55;;;;;;;10.03;8.93;;;12.10;99.90;;;;;;4936934;29;20505;-73
2021/05/26 07:57:01;;;;;;;9.43;8.50;;;12.10;99.90;;;;;;4936402;29;21004;-73
2021/05/26 07:59:43;;;;;;;28.43;13.90;;;12.10;99.90;;;;;;4942086;29;20471;-73
2021/05/26 08:08:52;;;;;;;10.13;8.03;;;12.30;99.90;;;;;;4936628;29;20444;-73
2021/05/26 08:11:56;;;;;;;36.23;14.33;;;12.40;99.90;;;;;;4937000;29;20487;-73
2021/05/26 08:15:05;;;;;;;7.80;6.03;;;12.60;99.90;;;;;;4935543;29;20456;-72
2021/05/26 08:17:46;;;;;;;6.53;6.00;;;12.70;99.90;;;;;;4935860;29;20488;-73
2021/05/26 08:20:14;;;;;;;6.90;5.97;;;12.90;99.90;;;;;;4936857;29;21122;-73
2021/05/26 08:22:43;;;;;;;6.57;5.30;;;12.90;99.90;;;;;;4936243;29;20448;-73
2021/05/26 08:25:11;;;;;;;7.13;6.47;;;12.90;99.90;;;;;;4936490;29;20442;-73
2021/05/26 08:27:39;;;;;;;7.70;5.77;;;12.90;99.90;;;;;;4936701;29;20456;-73
2021/05/26 08:30:08;;;;;;;7.10;6.50;;;12.80;99.90;;;;;;4936618;29;20459;-73
2021/05/26 08:32:35;;;;;;;6.63;6.00;;;12.80;99.90;;;;;;4936700;29;20452;-73
2021/05/26 08:35:05;;;;;;;6.57;5.97;;;12.70;99.90;;;;;;4936544;29;20966;-73
2021/05/26 08:37:39;;;;;;;7.33;6.63;;;12.70;99.90;;;;;;4936564;29;20429;-73
2021/05/26 08:40:08;;;;;;;7.90;6.60;;;12.60;99.90;;;;;;4936495;29;20468;-73
2021/05/26 08:42:36;;;;;;;7.63;7.00;;;12.50;99.90;;;;;;4936471;29;20447;-73
2021/05/26 08:45:06;;;;;;;8.10;7.30;;;12.50;99.90;;;;;;4936411;29;20440;-73
2021/05/26 08:47:36;;;;;;;7.53;6.83;;;12.50;99.90;;;;;;4936489;29;20436;-73
2021/05/26 08:50:05;;;;;;;8.40;7.60;;;12.50;99.90;;;;;;4936731;29;20471;-73
2021/05/26 08:52:33;;;;;;;8.40;7.63;;;12.70;99.90;;;;;;4936705;29;20452;-74
2021/05/26 08:55:01;;;;;;;7.30;6.60;;;12.90;99.90;;;;;;4936680;29;20842;-73
2021/05/26 08:57:30;;;;;;;7.20;6.50;;;13.20;99.90;;;;;;4920295;29;20436;-74
2021/05/26 08:59:58;;;;;;;7.30;6.63;;;13.40;99.90;;;;;;4933261;29;20840;-73
2021/05/26 09:02:25;;;;;;;6.60;6.10;;;13.60;99.90;;;;;;4935925;29;20960;-74
2021/05/26 09:04:53;;;;;;;7.50;6.23;;;13.80;99.90;;;;;;4935024;29;20442;-74
2021/05/26 09:07:22;;;;;;;6.40;5.80;;;14.00;99.90;;;;;;4936097;29;20448;-74
2021/05/26 09:09:54;;;;;;;7.30;6.43;;;14.10;99.90;;;;;;4936260;29;20470;-74
2021/05/26 09:12:42;;;;;;;6.20;5.40;;;14.30;99.90;;;;;;4936120;29;20537;-74
2021/05/26 09:15:14;;;;;;;5.27;4.77;;;14.50;99.90;;;;;;4936443;29;20440;-74
2021/05/26 09:17:43;;;;;;;7.07;6.10;;;14.70;99.90;;;;;;4936128;29;20894;-74
2021/05/26 09:20:13;;;;;;;5.80;5.30;;;14.80;99.90;;;;;;4935537;29;20482;-72
2021/05/26 09:22:56;;;;;;;5.37;4.87;;;15.00;99.90;;;;;;4936305;29;20455;-71
2021/05/26 09:25:24;;;;;;;5.00;4.50;;;15.10;99.90;;;;;;4936056;29;20431;-71
2021/05/26 09:28:23;;;;;;;6.27;5.30;;;15.00;99.90;;;;;;4936075;29;20454;-72
2021/05/26 09:30:54;;;;;;;6.05;5.45;;;14.90;99.90;;;;;;4935128;29;20457;-72
2021/05/26 09:33:30;;;;;;;5.70;5.20;;;14.80;99.90;;;;;;4936362;29;20622;-71
2021/05/26 09:36:10;;;;;;;5.90;5.40;;;14.70;99.90;;;;;;4939584;29;20449;-72
2021/05/26 09:38:38;;;;;;;8.47;5.20;;;14.60;99.90;;;;;;4939939;29;20542;-71
2021/05/26 09:41:10;;;;;;;7.07;5.70;;;14.50;99.90;;;;;;4939580;29;20430;-72
2021/05/26 09:43:40;;;;;;;6.03;5.43;;;14.40;99.90;;;;;;4939074;29;20433;-72
2021/05/26 09:46:30;;;;;;;6.10;5.60;;;14.30;99.90;;;;;;4939803;29;20436;-71
2021/05/26 09:49:13;;;;;;;9.00;6.67;;;14.30;99.90;;;;;;4939828;29;20421;-71
2021/05/26 09:51:43;;;;;;;8.73;6.97;;;14.20;99.90;;;;;;4939579;29;20467;-71
2021/05/26 09:54:18;;;;;;;6.90;6.40;;;14.20;99.90;;;;;;4939118;29;20459;-71
2021/05/26 09:56:48;;;;;;;7.27;6.60;;;14.10;99.90;;;;;;4939298;29;20893;-72
2021/05/26 09:59:18;;;;;;;8.80;7.93;;;14.20;99.90;;;;;;4939110;29;20527;-71
2021/05/26 10:01:46;;;;;;;8.00;7.20;;;14.20;99.90;;;;;;4939219;29;20459;-71
2021/05/26 10:04:13;;;;;;;7.60;6.90;;;14.20;99.90;;;;;;4937599;29;20426;-72
2021/05/26 10:06:42;;;;;;;9.90;7.97;;;14.20;99.90;;;;;;4937540;29;20460;-72
2021/05/26 10:09:33;;;;;;;9.20;8.30;;;14.20;99.90;;;;;;4939114;29;20466;-72
2021/05/26 10:12:12;;;;;;;9.37;8.57;;;14.20;99.90;;;;;;4937587;29;20535;-72
2021/05/26 10:14:44;;;;;;;10.13;9.10;;;14.20;99.90;;;;;;4940515;29;20466;-72
2021/05/26 10:17:19;;;;;;;9.17;8.30;;;14.10;99.90;;;;;;4937550;29;20457;-71
2021/05/26 10:19:49;;;;;;;9.87;8.80;;;14.10;99.90;;;;;;4938549;29;20896;-72
2021/05/26 10:22:18;;;;;;;10.50;9.50;;;14.00;99.90;;;;;;4938947;29;20456;-72
2021/05/26 10:24:45;;;;;;;11.40;10.20;;;14.00;99.90;;;;;;4938748;29;20496;-72
2021/05/26 10:27:31;;;;;;;11.50;10.07;;;14.00;99.90;;;;;;4938464;29;20945;-72
2021/05/26 10:30:01;;;;;;;10.97;10.00;;;13.90;99.90;;;;;;4938709;29;20474;-72
2021/05/26 10:32:46;;;;;;;13.00;10.47;;;13.90;99.90;;;;;;4939058;29;20475;-72
2021/05/26 10:35:15;;;;;;;11.43;10.43;;;13.90;99.90;;;;;;4937050;29;20493;-72
2021/05/26 10:37:44;;;;;;;11.60;10.03;;;13.90;99.90;;;;;;4938535;29;20805;-72
2021/05/26 10:40:56;;;;;;;11.33;10.30;;;13.80;99.90;;;;;;4938224;29;20463;-72
2021/05/26 10:43:35;;;;;;;11.40;10.40;;;13.80;99.90;;;;;;4933467;29;20475;-72
2021/05/26 10:46:06;;;;;;;14.57;10.77;;;13.70;99.90;;;;;;4937668;29;20947;-72
2021/05/26 10:49:02;;;;;;;12.10;10.98;;;13.70;99.90;;;;;;4937719;29;20993;-72
2021/05/26 10:52:09;;;;;;;11.20;10.20;;;13.80;99.90;;;;;;4937671;29;20277;-73
2021/05/26 10:55:02;;;;;;;10.80;9.13;;;13.70;99.90;;;;;;4938354;29;20485;-72
2021/05/26 10:57:53;;;;;;;7.30;6.63;;;13.60;99.90;;;;;;4936634;29;21011;-72
2021/05/26 11:00:28;;;;;;;7.63;6.70;;;13.50;99.90;;;;;;4936548;29;20446;-72
2021/05/26 11:03:43;;;;;;;5.03;4.10;;;13.50;99.90;;;;;;4938235;29;20204;-71
2021/05/26 11:06:45;;;;;;;4.23;3.87;;;13.30;99.90;;;;;;4936622;29;20499;-72
2021/05/26 11:09:14;;;;;;;3.60;3.30;;;13.10;99.90;;;;;;4936440;29;20480;-72
2021/05/26 11:11:55;;;;;;;4.17;3.77;;;13.10;99.90;;;;;;4936500;29;20476;-73
2021/05/26 11:14:35;;;;;;;3.90;3.00;;;13.00;99.90;;;;;;4938772;29;20468;-72
2021/05/26 11:17:39;;;;;;;4.57;3.23;;;13.00;99.90;;;;;;4938176;29;20503;-74
2021/05/26 11:20:43;;;;;;;5.00;4.50;;;13.00;99.90;;;;;;4924817;29;20486;-74
2021/05/26 11:23:20;;;;;;;5.80;5.30;;;13.00;99.90;;;;;;4936326;29;20451;-74
2021/05/26 11:25:58;;;;;;;7.07;6.20;;;13.10;99.90;;;;;;4937505;29;20482;-74
2021/05/26 11:28:29;;;;;;;7.57;6.87;;;13.10;99.90;;;;;;4937739;29;20482;-74
2021/05/26 11:31:01;;;;;;;8.10;7.40;;;13.20;99.90;;;;;;4936203;29;20515;-74
2021/05/26 11:33:29;;;;;;;10.10;9.10;;;13.20;99.90;;;;;;4936120;29;20419;-74
2021/05/26 11:36:02;;;;;;;9.00;8.20;;;13.30;99.90;;;;;;4935948;29;20989;-74
2021/05/26 11:38:31;;;;;;;9.80;8.90;;;13.30;99.90;;;;;;4937391;29;20401;-74
2021/05/26 11:41:01;;;;;;;9.83;9.03;;;13.20;99.90;;;;;;4935735;29;21116;-74
2021/05/26 11:43:31;;;;;;;9.87;9.07;;;13.20;99.90;;;;;;4937353;29;20428;-74
2021/05/26 11:46:04;;;;;;;8.40;7.60;;;13.20;99.90;;;;;;4937240;29;20506;-74
2021/05/26 11:48:31;;;;;;;7.67;6.97;;;13.10;99.90;;;;;;4938679;29;20507;-74
2021/05/26 11:51:00;;;;;;;6.53;6.03;;;13.10;99.90;;;;;;4936783;29;20464;-74
2021/05/26 11:53:29;;;;;;;5.47;4.97;;;13.00;99.90;;;;;;4937044;29;20467;-74
2021/05/26 11:56:00;;;;;;;4.60;4.20;;;12.90;99.90;;;;;;4935252;29;20543;-71
2021/05/26 11:58:36;;;;;;;4.27;3.87;;;12.80;99.90;;;;;;4934978;29;20547;-71
2021/05/26 12:01:09;;;;;;;4.37;4.07;;;12.80;99.90;;;;;;4936922;29;20566;-71
2021/05/26 12:03:37;;;;;;;4.43;4.03;;;12.70;99.90;;;;;;4936924;29;20817;-71
2021/05/26 12:06:05;;;;;;;4.32;3.80;;;12.70;99.90;;;;;;4936456;29;20453;-71
2021/05/26 12:08:38;;;;;;;3.50;3.20;;;12.90;99.90;;;;;;4937107;29;20197;-71
2021/05/26 12:11:08;;;;;;;3.00;2.80;;;13.10;99.90;;;;;;4937487;29;20464;-71
2021/05/26 12:13:39;;;;;;;4.10;3.70;;;13.30;99.90;;;;;;4936747;29;20448;-71
2021/05/26 12:16:09;;;;;;;4.67;4.20;;;13.40;99.90;;;;;;4936660;29;20407;-71
2021/05/26 12:18:38;;;;;;;4.90;4.50;;;13.40;99.90;;;;;;4936417;29;20954;-71
2021/05/26 12:21:06;;;;;;;4.70;4.30;;;13.50;99.90;;;;;;4935175;29;20468;-71
2021/05/26 12:23:36;;;;;;;5.80;5.20;;;13.50;99.90;;;;;;4936372;29;20908;-71
2021/05/26 12:26:21;;;;;;;5.70;5.03;;;13.60;99.90;;;;;;4935066;29;20466;-71
2021/05/26 12:28:50;;;;;;;5.30;4.80;;;13.60;99.90;;;;;;4934856;29;20508;-70
2021/05/26 12:31:19;;;;;;;5.97;5.30;;;13.70;99.90;;;;;;4936537;29;20481;-71
2021/05/26 12:33:48;;;;;;;5.60;5.10;;;13.80;99.90;;;;;;4936507;29;20456;-71
2021/05/26 12:36:16;;;;;;;6.83;5.60;;;13.90;99.90;;;;;;4934758;29;20458;-73
2021/05/26 12:38:45;;;;;;;5.97;5.47;;;13.90;99.90;;;;;;4935193;29;20534;-74
2021/05/26 12:41:24;;;;;;;5.20;4.80;;;14.00;99.90;;;;;;4934840;29;20472;-74
2021/05/26 12:43:54;;;;;;;4.50;4.13;;;14.20;99.90;;;;;;4934857;29;20446;-74
2021/05/26 12:46:36;;;;;;;9.10;4.83;;;14.30;99.90;;;;;;4934979;29;20485;-74
2021/05/26 12:49:05;;;;;;;4.90;4.50;;;14.50;99.90;;;;;;4934903;29;20443;-74
2021/05/26 12:51:41;;;;;;;4.20;3.90;;;14.60;99.90;;;;;;4934856;29;21013;-74
2021/05/26 12:54:08;;;;;;;5.23;3.53;;;14.70;99.90;;;;;;4936166;29;20494;-74
2021/05/26 12:56:36;;;;;;;3.60;3.30;;;14.80;99.90;;;;;;4936001;29;20478;-74
2021/05/26 12:59:05;;;;;;;4.23;3.10;;;14.80;99.90;;;;;;4936312;29;20419;-74
2021/05/26 13:01:33;;;;;;;4.53;4.10;;;14.90;99.90;;;;;;4936409;29;20423;-74
2021/05/26 13:04:13;;;;;;;4.80;4.40;;;14.90;99.90;;;;;;4936132;29;20495;-74
2021/05/26 13:06:42;;;;;;;4.17;3.87;;;15.00;99.90;;;;;;4934727;29;20425;-74
2021/05/26 13:09:14;;;;;;;4.30;3.90;;;15.00;99.90;;;;;;4938789;29;20488;-74
2021/05/26 13:11:43;;;;;;;4.50;4.20;;;15.10;99.90;;;;;;4938679;29;20526;-74
2021/05/26 13:14:13;;;;;;;5.73;5.17;;;15.10;99.90;;;;;;4938654;29;20458;-74